Station: Tunnack

  Atmospheric Gas Attenuation - ITU Rec 676-11   --------------- db/100km ---------------
Date Time Temp RH % AH g/m3 Dew Point Wind Direction Speed kph Gust kph Barometer mB Rainfall Since 9am 24GHz 47GHz 76GHz 122GHz 134GHz 241GHz
22 12:30 23.3 34 7.11 6.6 13 19 1024.7 0 16.0 21.6 30.7 80.1 71.1 243.8
22 12:20 23.3 42 8.78 9.7 13 15 1024.8 0 19.5 24.0 36.5 95.6 90.2 310.8
22 12:10 23 41 8.43 9 17 20 1025 0 18.8 23.5 35.4 92.6 86.4 297.6
22 12:00 23.1 41 8.47 9.1 13 17 1024.9 0 18.9 23.6 35.5 92.9 86.8 298.8
22 11:50 22.4 33 6.55 5.4 13 17 1025.1 0 14.9 21.1 29.1 75.9 65.7 224.7
22 11:40 22.7 35 7.07 6.5 15 17 1025.1 0 16.0 21.7 30.8 80.3 71.2 244.1
22 11:30 22.4 39 7.74 7.8 15 20 1025.1 0 17.4 22.7 33.2 86.8 79.1 271.7
22 11:20 22.1 48 9.37 10.6 13 17 1025.4 0 20.8 25.2 39.2 102.8 98.7 340.6
22 11:10 22.4 59 11.72 14 7 9 1025.4 0 25.7 28.8 48.1 126.6 128.1 443.4
22 11:00 21.4 60 11.25 13.3 9 15 1025.4 0 24.8 28.3 46.8 123.2 123.5 427.3
22 10:50 20.8 60 10.86 12.8 11 13 1025.5 0 24.0 27.9 45.6 119.9 119.4 412.7
22 10:40 20.6 61 10.92 12.8 7 11 1025.7 0 24.1 28.1 46.0 120.9 120.5 416.6
22 10:30 20.6 64 11.45 13.6 9 15 1025.6 0 25.3 28.9 48.1 126.6 127.5 441.1
22 10:20 20.1 65 11.3 13.3 9 11 1025.9 0 25.0 28.8 47.8 125.8 126.4 437.0
22 10:10 20 66 11.41 13.5 11 13 1026 0 25.2 29.1 48.4 127.2 128.0 442.7
22 10:00 19.4 71 11.84 14 11 13 1026 0 26.2 30.0 50.5 132.9 134.9 466.6
22 09:50 18.7 73 11.69 13.8 11 11 1026.2 0 25.9 30.0 50.3 132.5 134.0 463.7
22 09:40 18.5 75 11.87 14 13 15 1026.3 0 26.3 30.4 51.2 134.8 136.9 473.6
22 09:30 17.9 82 12.52 14.8 7 11 1026.3 0 27.7 31.7 54.5 143.4 147.2 509.6
22 09:20 17.1 83 12.08 14.2 7 9 1026.5 0 26.8 31.2 53.1 139.8 142.5 492.8
22 09:10 16.6 81 11.44 13.3 7 9 1026.6 0 25.5 30.3 50.7 133.3 134.3 464.1
22 09:00 16.2 86 11.86 13.9 11 15 1026.5 0 26.4 31.2 52.7 138.8 141.0 487.5
22 08:50 15.7 89 11.91 13.9 9 15 1026.6 0 26.5 31.4 53.3 140.3 142.6 493.2
22 08:40 15.3 91 11.88 13.8 11 13 1026.6 0 26.5 31.5 53.5 140.7 143.0 494.3
22 08:30 15 95 12.18 14.2 7 11 1026.6 0 27.2 32.2 55.0 144.8 147.9 511.7
22 08:20 14.4 96 11.87 13.8 7 9 1026.8 0 26.5 31.8 54.0 142.3 144.5 499.7
22 08:10 14 98 11.82 13.7 11 13 1026.6 0 26.5 31.9 54.1 142.4 144.5 499.6
22 08:00 13.8 100 11.92 13.8 9 11 1026.6 0 26.7 32.1 54.7 144.0 146.4 506.2
22 07:50 13.3 100 11.55 13.5 9 11 1026.7 0 25.9 31.7 53.4 140.4 141.9 490.2
22 07:40 12.8 100 11.2 13 7 9 1026.7 0 25.2 31.2 52.1 137.1 137.6 475.2
22 07:30 12.6 100 11.06 12.6 7 9 1026.6 0 24.9 31.0 51.6 135.8 135.9 469.2
22 07:20 12 100 10.66 12.2 9 11 1026.8 0 24.1 30.5 50.2 132.0 131.1 452.3
22 07:10 11.6 100 10.4 11.8 7 7 1026.7 0 23.6 30.2 49.3 129.6 127.9 441.3
22 07:00 11.3 100 10.2 11.3 7 9 1026.6 0 23.1 29.9 48.6 127.7 125.5 432.7
22 06:50 10.7 100 9.82 10.8 6 7 1026.6 0 22.4 29.5 47.3 124.2 120.9 416.7
22 06:40 10.3 100 9.58 10.4 2 6 1026.6 0 21.9 29.2 46.5 122.0 118.1 406.7
22 06:30 9.6 100 9.16 9.6 4 7 1026.4 0 21.0 28.6 45.0 118.2 113.0 389.0
22 06:20 8.9 100 8.76 9 6 6 1026.5 0 20.2 28.2 43.7 114.5 108.3 372.3
22 06:10 9 100 8.82 9.1 0 0 1026.4 0 20.3 28.2 43.9 115.1 109.0 374.8
22 06:00 8.6 100 8.6 8.6 2 6 1026.3 0 19.8 28.0 43.1 113.1 106.4 365.7
22 05:50 9.1 100 8.88 9.2 6 7 1026.4 0 20.4 28.3 44.1 115.6 109.7 377.4
22 05:40 10.3 100 9.58 10.4 0 0 1026.4 0 21.9 29.2 46.5 122.0 118.1 406.6
22 05:20 9.8 100 9.28 9.9 0 0 1026.3 0 21.2 28.8 45.4 119.2 114.5 394.0
22 05:10 10 100 9.4 10.1 2 6 1026.3 0 21.5 28.9 45.8 120.3 115.9 399.0
22 05:00 10 100 9.4 10 2 9 1026.2 0 21.5 28.9 45.8 120.3 115.9 399.0
22 04:50 10.2 100 9.52 10.3 0 0 1026.4 0 21.7 29.1 46.3 121.4 117.3 404.1
22 04:40 10.2 100 9.52 10.3 6 6 1026.4 0 21.7 29.1 46.3 121.4 117.3 404.1
22 04:30 10.1 100 9.46 10.1 6 7 1026.4 0 21.6 29.0 46.1 120.9 116.6 401.6
22 04:20 9.9 100 9.34 9.9 6 6 1026.5 0 21.4 28.9 45.6 119.8 115.2 396.6
22 04:10 9.6 100 9.16 9.6 7 7 1026.5 0 21.0 28.7 45.0 118.2 113.1 389.0
22 04:00 9.7 100 9.22 9.7 6 7 1026.5 0 21.1 28.7 45.2 118.7 113.8 391.5
22 03:50 10.3 100 9.58 10.3 7 7 1026.6 0 21.9 29.2 46.5 122.0 118.1 406.7
22 03:40 10.3 99 9.48 10.1 7 7 1026.8 0 21.6 29.0 46.0 120.9 116.6 401.7
22 03:30 10.4 99 9.54 10.2 6 7 1026.7 0 21.8 29.1 46.2 121.4 117.3 404.1
22 03:20 10.4 98 9.45 10.1 6 6 1026.9 0 21.6 28.9 45.9 120.4 116.1 399.7
22 03:10 10.2 95 9.04 9.4 6 7 1027 0 20.7 28.3 44.2 115.9 110.5 380.2
22 03:00 11.2 96 9.73 10.6 7 11 1027 0 22.1 29.1 46.6 122.4 118.9 409.6
22 02:50 11.3 95 9.69 10.5 9 11 1027 0 22.0 29.0 46.4 121.8 118.1 407.1
22 02:40 11.4 95 9.75 10.6 7 9 1027.1 0 22.2 29.1 46.6 122.3 118.9 409.6
22 02:30 11.8 97 10.21 11.3 9 11 1027.1 0 23.1 29.8 48.4 127.1 124.9 430.6
22 02:20 11.4 96 9.86 10.8 7 9 1027.2 0 22.4 29.3 47.1 123.6 120.5 415.1
22 02:10 11.6 99 10.29 11.4 7 7 1027.2 0 23.3 30.0 48.8 128.4 126.4 435.8
22 02:00 10.9 96 9.55 10.3 4 9 1027.2 0 21.8 28.9 46.0 120.8 116.8 402.2
22 01:50 10.6 94 9.18 9.7 7 7 1027.3 0 21.0 28.4 44.6 117.0 111.9 385.2
22 01:40 10.1 88 8.32 8.2 0 0 1027.4 0 19.2 27.1 41.2 107.9 100.5 345.3
22 01:30 12 92 9.81 10.7 0 0 1027.5 0 22.3 29.0 46.5 122.1 118.8 409.5
22 01:20 11.8 89 9.37 10 0 0 1027.7 0 21.3 28.4 44.7 117.4 112.9 388.8
22 01:10 11.7 91 9.52 10.3 2 2 1027.8 0 21.6 28.6 45.4 119.3 115.2 396.7
22 01:00 10.8 94 9.29 9.9 0 0 1027.6 0 21.2 28.5 45.0 118.0 113.2 389.8
22 00:50 10.7 93 9.14 9.6 0 0 1027.7 0 20.9 28.3 44.4 116.4 111.3 382.9
22 00:40 10.9 93 9.25 9.8 0 0 1027.8 0 21.1 28.4 44.7 117.4 112.5 387.4
22 00:30 11 93 9.31 9.9 6 6 1027.6 0 21.2 28.5 44.9 117.9 113.2 389.8
22 00:20 11 94 9.41 10.1 6 6 1027.8 0 21.5 28.7 45.4 119.1 114.7 394.8
22 00:10 10.8 94 9.29 9.9 6 6 1027.8 0 21.2 28.5 45.0 118.0 113.3 389.9
22 00:00 10.8 92 9.1 9.6 4 7 1027.7 0 20.8 28.2 44.1 115.8 110.5 380.4
21 23:50 11.6 91 9.46 10.2 0 0 1027.9 0 21.5 28.6 45.2 118.7 114.5 394.3
21 23:40 11.5 90 9.3 9.9 0 0 1027.9 0 21.2 28.3 44.6 117.1 112.4 386.9
21 23:30 11.7 90 9.41 10.1 0 0 1027.9 0 21.4 28.5 45.0 118.0 113.6 391.3
21 23:20 11.9 87 9.22 9.8 0 0 1027.9 0 21.0 28.1 44.0 115.6 110.7 381.0
21 23:10 12.1 85 9.12 9.7 6 7 1028.1 0 20.8 27.8 43.5 114.1 109.0 375.2
21 23:00 12.2 80 8.63 8.9 7 9 1027.9 0 19.7 27.0 41.4 108.5 102.1 351.0
21 22:50 14.2 73 8.91 9.4 7 7 1028.2 0 20.2 26.8 41.5 108.8 103.3 355.4
21 22:40 13.9 74 8.87 9.3 11 13 1028.3 0 20.1 26.9 41.5 108.8 103.1 354.9
21 22:30 14.2 74 9.04 9.6 9 11 1028.3 0 20.5 27.1 42.1 110.3 105.0 361.5
21 22:20 14.3 71 8.72 9.1 6 7 1028.4 0 19.8 26.5 40.7 106.7 100.6 346.1
21 22:10 15.9 65 8.8 9.3 9 11 1028.4 0 19.9 26.2 40.2 105.4 99.6 342.8
21 22:00 15.8 65 8.75 9.2 7 9 1028.2 0 19.8 26.1 40.1 105.0 99.1 340.9
21 21:50 15.5 68 8.99 9.6 7 7 1028.3 0 20.3 26.6 41.2 107.9 102.6 353.3
21 21:40 15.7 68 9.1 9.8 9 9 1028.1 0 20.5 26.7 41.5 108.8 103.8 357.4
21 21:30 16.3 65 9.02 9.7 9 11 1027.7 0 20.3 26.4 40.9 107.1 101.9 350.9
21 21:20 16.5 65 9.13 9.9 9 11 1027.8 0 20.6 26.5 41.2 108.0 103.1 355.1
21 21:10 17.1 63 9.17 10 9 11 1027.9 0 20.6 26.4 41.0 107.6 102.8 354.2
21 21:00 17.5 61 9.09 9.9 7 9 1027.6 0 20.4 26.1 40.5 106.2 101.2 348.8
21 20:50 17.8 60 9.11 9.9 9 11 1027.7 0 20.5 26.1 40.4 106.0 101.1 348.4
21 20:40 18.3 58 9.07 9.9 9 11 1027.9 0 20.3 25.9 40.1 105.0 100.0 344.5
21 20:30 18.7 56 8.96 9.8 9 15 1027.7 0 20.1 25.6 39.4 103.3 98.1 337.8
21 20:20 19.1 56 9.18 10.1 13 15 1027.8 0 20.5 25.8 40.1 105.0 100.4 345.9
21 20:10 19.2 58 9.56 10.7 11 15 1027.8 0 21.3 26.4 41.5 108.8 105.1 362.4
21 20:00 19.6 57 9.62 10.9 11 17 1027.6 0 21.4 26.4 41.5 108.9 105.3 363.2
21 19:50 20.1 56 9.73 11.1 13 17 1027.7 0 21.6 26.4 41.7 109.4 106.0 365.8

Last Refresh: 22-Jan-2022 12:13:23

Bureau of Meteorology